Flight Track Log - Related Links

Times and Time Zones

All times are in EDT time to prevent confusion due to time zone crossing. See the AWE1705 flight status page for this flight to view local times or setup timezone preferences in your user account.

Time Position Orientation Groundspeed Altitude Reporting Facility
EDT Latitude Longitude Course Direction KTS MPH feet Rate Location/Type
Fri 10:01:51 AM 39.8667 -75.2000 142° Southeast 173 199 1,300  Level Philadelphia TRACON
Fri 10:03:43 AM 39.8022 -75.1189 136° Southeast 200 230 5,300 2,337 Climbing Washington Center
Fri 10:04:00 AM 39.5742 -75.5228 180° South  Level Estimated
Fri 10:04:43 AM 39.7483 -75.1839 223° Southwest 202 232 8,000  Level Washington Center
Fri 10:05:00 AM 39.4996 -75.5929 180° South  Level Estimated
Fri 10:05:41 AM 39.6858 -75.2492 219° Southwest 254 292 10,900  Level Washington Center
Fri 10:06:00 AM 39.4250 -75.6628 189° South  Level Estimated
Fri 10:06:41 AM 39.6069 -75.3086 210° Southwest 298 343 13,000  Level Washington Center
Fri 10:07:42 AM 39.5069 -75.3281 189° South 335 386 15,700 1,475 Climbing Washington Center
Fri 10:08:43 AM 39.4069 -75.3472 188° South 355 409 16,000 605 Climbing Washington Center
Fri 10:09:41 AM 39.3050 -75.3636 187° South 372 428 16,900 454 Climbing Washington Center
Fri 10:10:42 AM 39.2028 -75.3828 188° South 372 428 16,900  Level Washington Center
Fri 10:11:41 AM 39.1008 -75.3989 187° South 372 428 16,900 756 Level Washington Center
Fri 10:12:41 AM 38.9944 -75.4128 186° South 372 428 18,400 1,750 Climbing Washington Center
Fri 10:13:41 AM 38.8881 -75.4317 188° South 378 435 20,400 1,835 Climbing Washington Center
Fri 10:14:42 AM 38.7756 -75.4453 185° South 397 457 22,100 1,750 Climbing Washington Center
Fri 10:15:41 AM 38.6608 -75.4642 187° South 409 471 23,900 1,714 Climbing Washington Center
Fri 10:16:41 AM 38.5422 -75.4803 186° South 426 490 25,500 1,041 Climbing Washington Center
Fri 10:17:42 AM 38.4211 -75.5017 188° South 433 498 26,000 248 Climbing Washington Center
Fri 10:18:42 AM 38.3003 -75.5361 193° South 439 505 26,000  Level Washington Center
Fri 10:19:43 AM 38.1794 -75.6128 207° Southwest 449 517 26,000  Level Washington Center
Fri 10:20:41 AM 38.0708 -75.6789 206° Southwest 439 505 26,000  Level Washington Center
Fri 10:21:41 AM 37.9667 -75.7472 207° Southwest 434 499 26,000  Level Washington Center
Fri 10:22:41 AM 37.8664 -75.8286 213° Southwest 434 499 26,000  Level Washington Center
Fri 10:23:42 AM 37.7786 -75.9281 222° Southwest 429 494 26,000  Level Washington Center
Fri 10:24:43 AM 37.6928 -76.0300 223° Southwest 429 494 26,000  Level Washington Center
Fri 10:25:43 AM 37.6025 -76.1267 220° Southwest 429 494 26,000  Level Washington Center
Fri 10:26:40 AM 37.5103 -76.2228 220° Southwest 434 499 26,000  Level Washington Center
Fri 10:27:42 AM 37.4222 -76.3189 221° Southwest 434 499 26,000 -246 Level Washington Center
Fri 10:28:42 AM 37.3319 -76.4172 221° Southwest 434 499 25,500 -1,008 Descending Washington Center
Fri 10:29:41 AM 37.2478 -76.5156 223° Southwest 434 499 24,000 -756 Descending Washington Center
Fri 10:30:41 AM 37.1758 -76.6294 232° Southwest 417 480 24,000  Level Washington Center
Fri 10:31:42 AM 37.1039 -76.7378 230° Southwest 417 480 24,000  Level Washington Center
Fri 10:32:43 AM 37.0319 -76.8486 231° Southwest 417 480 24,000 -496 Level Washington Center
Fri 10:33:43 AM 36.9619 -76.9592 232° Southwest 417 480 23,000 -500 Descending Washington Center
Fri 10:34:43 AM 36.8917 -77.0694 231° Southwest 417 480 23,000  Level Washington Center
Fri 10:35:41 AM 36.8194 -77.1772 230° Southwest 417 480 23,000  Level Washington Center
Fri 10:36:42 AM 36.7492 -77.2872 231° Southwest 417 480 23,000  Level Washington Center
Fri 10:37:42 AM 36.6786 -77.3944 231° Southwest 417 480 23,000  Level Washington Center
Fri 10:38:42 AM 36.6061 -77.5039 230° Southwest 417 480 23,000 -645 Level Washington Center
Fri 10:39:43 AM 36.5375 -77.6108 231° Southwest 417 480 21,700 -1,700 Descending Washington Center
Fri 10:40:42 AM 36.4689 -77.7150 231° Southwest 412 474 19,600 -1,916 Descending Washington Center
Fri 10:41:42 AM 36.4025 -77.8192 232° Southwest 406 467 17,900 -1,934 Descending Washington Center
Fri 10:42:43 AM 36.3381 -77.9203 232° Southwest 389 448 15,700 -2,121 Descending Washington Center
Fri 10:43:38 AM 36.2778 -78.0061 229° Southwest 355 409 13,800 -1,966 Descending Washington Center
Fri 10:43:41 AM 36.2733 -78.0139 235° Southwest 374 430 13,800 -1,814 Level Washington Center
Fri 10:44:21 AM 36.2303 -78.0794 231° Southwest 347 399 12,500 -1,770 Descending Washington Center
Fri 10:44:42 AM 36.2131 -78.1072 232° Southwest 368 423 12,000 -1,600 Descending Washington Center
Fri 10:45:21 AM 36.1722 -78.1650 229° Southwest 330 380 10,900 -1,100 Descending Washington Center
Fri 10:45:42 AM 36.1611 -78.1956 246° West 343 395 10,900 -333 Level Washington Center
Fri 10:45:57 AM 36.1481 -78.2208 237° Southwest 293 337 10,700 -1,421 Descending Washington Center
Fri 10:46:58 AM 36.1106 -78.3097 242° Southwest 288 331 9,100 -1,543 Descending Washington Center
Fri 10:47:42 AM 36.0842 -78.3678 241° Southwest 294 338 8,000 -1,548 Descending Washington Center
Fri 10:48:00 AM 36.0731 -78.3956 244° Southwest 286 329 7,500 -700 Descending Washington Center
Fri 10:48:42 AM 36.0572 -78.4567 252° West 282 325 7,300 -444 Descending Washington Center
Fri 10:48:54 AM 36.0547 -78.4747 260° West 247 284 7,100 -1,082 Descending Washington Center
Fri 10:49:43 AM 36.0450 -78.5308 258° West 256 295 6,200 -1,054 Descending Washington Center
Fri 10:50:08 AM 36.0419 -78.5642 264° West 213 245 5,800 -1,138 Descending Washington Center
Fri 10:50:41 AM 36.0369 -78.5972 259° West 224 258 5,100 -1,500 Descending Washington Center
Fri 10:51:08 AM 36.0197 -78.6197 227° Southwest 180 207 4,300 -1,475 Descending Washington Center
Fri 10:51:42 AM 36.0067 -78.6397 231° Southwest 190 219 3,600 -1,418 Descending Washington Center
Fri 10:52:03 AM 35.9894 -78.6622 227° Southwest 178 205 3,000 -1,100 Descending Washington Center
Fri 10:52:42 AM 35.9722 -78.6847 227° Southwest 180 207 2,500 -900 Descending Washington Center
Fri 10:53:03 AM 35.9572 -78.7019 223° Southwest 171 197 2,100 -771 Descending Washington Center
Fri 10:53:52 AM 35.9356 -78.7294 226° Southwest 139 160 1,600 -689 Descending Washington Center
Fri 10:55:05 AM 35.9011 -78.7692 223° Southwest 129 148 700 -740 Descending Washington Center

Login

Don't have an account? Register now (free) for customized features, flight alerts, and more!